createdAt,value
2022-11-04T00:02:54.782Z,68.79
2022-11-04T00:08:16.335Z,68.82
2022-11-04T00:13:19.137Z,68.91
2022-11-04T00:18:21.977Z,68.77
2022-11-04T00:23:43.414Z,68.94
2022-11-04T00:28:46.294Z,69.01
2022-11-04T00:33:51.170Z,68.98
2022-11-04T00:38:54.489Z,68.77
2022-11-04T00:44:03.926Z,68.73
2022-11-04T00:49:06.978Z,69.33
2022-11-04T00:54:09.791Z,69.41
2022-11-04T00:59:14.577Z,69.46
2022-11-04T01:04:17.655Z,69.54
2022-11-04T01:09:20.526Z,69.59
2022-11-04T01:14:23.469Z,69.61
2022-11-04T01:19:26.353Z,69.83
2022-11-04T01:24:29.530Z,69.84
2022-11-04T01:29:32.399Z,70.01
2022-11-04T01:34:39.240Z,70.38
2022-11-04T01:39:45.318Z,70.43
2022-11-04T01:44:52.816Z,70.31
2022-11-04T01:50:11.021Z,70.03
2022-11-04T01:55:23.116Z,70.26
2022-11-04T02:00:25.934Z,70.04
2022-11-04T02:05:30.800Z,69.76
2022-11-04T02:10:33.815Z,69.31
2022-11-04T02:15:50.115Z,69.68
2022-11-04T02:21:28.395Z,69.93
2022-11-04T02:27:29.457Z,69.90
2022-11-04T02:32:40.250Z,69.97
2022-11-04T02:37:56.441Z,70.17
2022-11-04T02:43:17.883Z,69.97
2022-11-04T02:48:42.141Z,69.87
2022-11-04T02:53:58.690Z,69.83
2022-11-04T02:59:09.953Z,69.76
2022-11-04T03:04:21.442Z,69.66
2022-11-04T03:09:27.806Z,69.92
2022-11-04T03:14:43.074Z,70.36
2022-11-04T03:20:00.026Z,70.35
2022-11-04T03:25:09.075Z,70.06
2022-11-04T03:30:20.124Z,69.79
2022-11-04T03:35:23.754Z,69.90
2022-11-04T03:40:27.083Z,70.06
2022-11-04T03:45:30.010Z,70.12
2022-11-04T03:50:41.567Z,70.03
2022-11-04T03:56:21.654Z,70.22
2022-11-04T04:01:55.344Z,70.10
2022-11-04T04:07:20.419Z,70.14
2022-11-04T04:12:38.542Z,69.97
2022-11-04T04:17:53.894Z,70.24
2022-11-04T04:23:28.768Z,70.54
2022-11-04T04:28:31.669Z,70.64
2022-11-04T04:33:34.545Z,70.58
2022-11-04T04:38:59.948Z,70.66
2022-11-04T04:44:22.170Z,70.14
2022-11-04T04:49:25.028Z,70.05
2022-11-04T04:54:28.200Z,69.85
2022-11-04T04:59:31.045Z,70.09
2022-11-04T05:04:33.901Z,70.19
2022-11-04T05:09:37.164Z,70.50
2022-11-04T05:14:40.032Z,70.72
2022-11-04T05:19:42.966Z,70.64
2022-11-04T05:24:45.905Z,70.40
2022-11-04T05:29:48.770Z,70.45
2022-11-04T05:34:51.598Z,70.56
2022-11-04T05:39:54.473Z,70.83
2022-11-04T05:44:57.314Z,70.95
2022-11-04T05:50:00.172Z,70.99
2022-11-04T05:55:03.126Z,71.05
2022-11-04T06:00:07.099Z,71.10
2022-11-04T06:05:10.233Z,71.18
2022-11-04T06:10:13.123Z,71.37
2022-11-04T06:15:16.096Z,71.50
2022-11-04T06:20:18.977Z,71.69
2022-11-04T06:25:21.855Z,71.60
2022-11-04T06:30:24.927Z,71.80
2022-11-04T06:35:27.821Z,71.99
2022-11-04T06:40:31.148Z,71.98
2022-11-04T06:45:34.016Z,71.93
2022-11-04T06:50:36.852Z,71.95
2022-11-04T06:55:39.813Z,71.60
2022-11-04T07:00:42.850Z,71.71
2022-11-04T07:05:45.894Z,71.69
2022-11-04T07:10:48.763Z,71.88
2022-11-04T07:15:51.646Z,71.68
2022-11-04T07:20:54.530Z,71.79
2022-11-04T07:26:02.783Z,71.87
2022-11-04T07:31:08.103Z,71.97
2022-11-04T07:36:13.095Z,71.81
2022-11-04T07:41:16.663Z,71.54
2022-11-04T07:46:21.107Z,71.57
2022-11-04T07:51:24.211Z,71.76
2022-11-04T07:56:27.582Z,71.83
2022-11-04T08:01:30.592Z,71.95
2022-11-04T08:06:33.619Z,71.53
2022-11-04T08:11:36.564Z,71.53
2022-11-04T08:16:39.464Z,71.33
2022-11-04T08:21:42.319Z,71.25
2022-11-04T08:26:46.396Z,71.21
2022-11-04T08:31:49.412Z,71.22
2022-11-04T08:36:53.367Z,71.35
2022-11-04T08:41:57.281Z,71.48
2022-11-04T08:47:00.586Z,71.22
2022-11-04T08:52:04.073Z,70.83
2022-11-04T08:57:09.750Z,70.89
2022-11-04T09:02:18.232Z,70.50
2022-11-04T09:07:21.144Z,70.17
2022-11-04T09:12:24.047Z,70.15
2022-11-04T09:17:26.899Z,70.26
2022-11-04T09:22:29.762Z,69.00
2022-11-04T09:27:32.604Z,69.18
2022-11-04T09:32:35.695Z,68.66
2022-11-04T09:37:38.770Z,68.48
2022-11-04T09:42:55.050Z,68.28
2022-11-04T09:48:04.536Z,67.97
2022-11-04T09:53:42.700Z,68.37
2022-11-04T09:58:45.819Z,68.70
2022-11-04T10:04:56.972Z,68.42
2022-11-04T10:10:13.958Z,68.62
2022-11-04T10:15:47.896Z,68.45
2022-11-04T10:21:38.572Z,67.84
2022-11-04T10:27:00.924Z,68.27
2022-11-04T10:32:25.153Z,67.86
2022-11-04T10:37:28.510Z,66.66
2022-11-04T10:42:32.563Z,65.55
2022-11-04T10:47:55.852Z,65.92
2022-11-04T10:53:18.511Z,65.75
2022-11-04T10:58:28.269Z,65.63
2022-11-04T11:03:34.380Z,65.61
2022-11-04T11:08:38.160Z,65.22
2022-11-04T11:13:44.677Z,64.85
2022-11-04T11:19:17.077Z,64.91
2022-11-04T11:24:24.170Z,64.86
2022-11-04T11:29:40.401Z,64.40
2022-11-04T11:34:47.222Z,64.19
2022-11-04T11:39:50.702Z,64.63
2022-11-04T11:44:57.448Z,63.61
2022-11-04T11:50:30.652Z,63.43
2022-11-04T11:55:38.345Z,62.86
2022-11-04T12:00:52.055Z,63.00
2022-11-04T12:12:07.765Z,61.91
2022-11-04T12:17:13.487Z,62.51
2022-11-04T12:23:07.908Z,62.06
2022-11-04T12:28:13.964Z,62.19
2022-11-04T12:33:35.878Z,61.43
2022-11-04T12:39:20.051Z,62.00
2022-11-04T12:44:26.226Z,61.88
2022-11-04T12:50:04.368Z,62.24
2022-11-04T12:55:43.989Z,62.05
2022-11-04T13:00:59.480Z,61.42
2022-11-04T13:06:28.020Z,61.14
2022-11-04T13:11:43.668Z,61.28
2022-11-04T13:16:51.747Z,61.68
2022-11-04T13:21:56.966Z,62.00
2022-11-04T13:27:06.574Z,62.40
2022-11-04T13:32:33.523Z,62.63
2022-11-04T13:37:48.955Z,62.81
2022-11-04T13:43:38.412Z,62.54
2022-11-04T13:49:11.809Z,62.86
2022-11-04T13:54:33.369Z,62.54
2022-11-04T13:59:37.124Z,62.87
2022-11-04T14:04:42.371Z,63.19
2022-11-04T14:09:45.188Z,63.36
2022-11-04T14:15:11.132Z,63.34
2022-11-04T14:20:26.317Z,63.07
2022-11-04T14:25:41.603Z,62.96
2022-11-04T14:30:55.965Z,62.94
2022-11-04T14:36:25.345Z,62.38
2022-11-04T14:41:28.483Z,62.41
2022-11-04T14:46:41.779Z,62.30
2022-11-04T14:51:44.629Z,62.00
2022-11-04T14:56:47.532Z,61.82
2022-11-04T15:01:52.491Z,61.94
2022-11-04T15:06:57.590Z,61.93
2022-11-04T15:12:37.649Z,61.90
2022-11-04T15:17:40.636Z,61.60
2022-11-04T15:22:44.047Z,61.53
2022-11-04T15:27:46.990Z,61.10
2022-11-04T15:33:02.497Z,60.91
2022-11-04T15:38:05.579Z,60.65
2022-11-04T15:43:10.118Z,60.66
2022-11-04T15:48:23.396Z,60.52
2022-11-04T15:53:26.336Z,60.89
2022-11-04T15:58:29.243Z,61.16
2022-11-04T16:03:32.136Z,61.58
2022-11-04T16:08:35.352Z,61.49
2022-11-04T16:13:38.815Z,61.56
2022-11-04T16:18:51.283Z,61.41
2022-11-04T16:24:05.345Z,61.57
2022-11-04T16:29:14.982Z,62.14
2022-11-04T16:34:17.805Z,62.36
2022-11-04T16:39:20.622Z,62.71
2022-11-04T16:44:24.887Z,63.01
2022-11-04T16:49:27.889Z,63.29
2022-11-04T16:54:30.795Z,63.03
2022-11-04T16:59:33.703Z,63.47
2022-11-04T17:04:36.582Z,63.49
2022-11-04T17:09:39.747Z,63.88
2022-11-04T17:14:42.674Z,63.91
2022-11-04T17:19:45.619Z,63.96
2022-11-04T17:24:48.476Z,63.95
2022-11-04T17:29:51.317Z,63.89
2022-11-04T17:34:54.197Z,63.86
2022-11-04T17:39:57.039Z,64.06
2022-11-04T17:44:59.930Z,64.31
2022-11-04T17:50:05.908Z,64.58
2022-11-04T17:55:15.423Z,64.50
2022-11-04T18:00:24.176Z,65.54
2022-11-04T18:05:27.104Z,65.80
2022-11-04T18:10:29.968Z,65.92
2022-11-04T18:15:32.822Z,65.95
